Briefing drone pour Saint-priest-en-jarez

Rechercher une autre localisation

Conditions de vol :


Nous sommes le : Mardi 16 avril 2024
Il est 23:15 UTC (01:15 LT)

Lever de soleil : 04:27 UTC (06:27 LT)
Coucher de soleil : 18:56 UTC (20:56 LT)

Météo

L'essentiel des conditions de vol

VIGILANCE MÉTÉO FRANCE - Loire (42)
Pas de vigilances particulieres
CARTE TEMSI
CARTES DES FRONTS
METAR de LFMH
LFMH 152300Z AUTO 26006KT 9999 OVC056 12/03 Q1017

Date d'émission: 15/04/2024
Heure d'émission: 23:00 UTC
Vent: 260° pour 6 KT (11 km/h)
Visibilité horizontale: > 10 km
Plafond :
- Couvert à 5600ft (1707m)
Température: 12 °C
Point de rosée: 3 °C
Humidité: 54%
Pression (QNH): 1017 hPa
TAF de LFMH
LFMH 161901Z 1619/1712 CNL

Conditions prévues :

Heure d'émission : Bulletin éffectué le 16 à 19:00 UTC
Prévision : Valide du 16 a 19:00 UTC au 17 a 12:00 UTC
Nuages : à 0ft (0 m)
WEBCAM POUR SAINT-PRIEST-EN-JAREZ

Réglementation

Voler en sécurité

CARTES AERONAUTIQUE 1/500.000
CARTE AZBA (Reseau basse altitude)
CARTES VAC (LFMH)
SUP AIP




Chargement des AIP...
NOTAM (SAINT-PRIEST-EN-JAREZ + Terrain à proximité / FIR )




Chargement des NOTAMS...
CONTACT PREFECTURE 42
Loire (42) : [email protected]


Avertissement : Les données mises à disposition sont indicatives. Oxygène Drone ne pourra être tenu responsable de dégâts causés aux biens et aux personnes.